Time;durP1;ratioP1;P1;durP2;ratioP2;P2;SDS_P1;SDS_P2;PMS_P1;PMS_P2;Temp;Humidity;BMP_temperature;BMP_pressure;BME280_temperature;BME280_humidity;BME280_pressure;Samples;Min_cycle;Max_cycle;Signal;HPM_P1;HPM_P2
2023/03/18 00:00:35;;;;;;;14.68;8.55;;;;;;;12.22;74.95;100708.53;4931867;29;20044;-91
2023/03/18 00:03:00;;;;;;;12.93;8.48;;;;;;;12.21;75.04;100697.22;4916323;29;20063;-91
2023/03/18 00:05:26;;;;;;;16.35;8.73;;;;;;;12.23;74.67;100703.34;4911322;29;20036;-91
2023/03/18 00:07:51;;;;;;;13.02;8.38;;;;;;;12.22;75.15;100709.41;4913527;29;20052;-91
2023/03/18 00:10:17;;;;;;;16.88;8.95;;;;;;;12.21;74.91;100712.00;4933832;29;20513;-91
2023/03/18 00:12:45;;;;;;;13.18;8.15;;;;;;;12.21;75.34;100707.69;4911690;29;20417;-91
2023/03/18 00:15:13;;;;;;;15.93;8.55;;;;;;;12.18;75.54;100718.09;4934024;29;20019;-91
2023/03/18 00:17:42;;;;;;;14.05;9.10;;;;;;;12.17;75.57;100717.19;4931411;29;20111;-91
2023/03/18 00:20:27;;;;;;;15.85;8.10;;;;;;;12.15;75.82;100711.06;4933694;29;20036;-91
2023/03/18 00:22:54;;;;;;;13.48;8.55;;;;;;;12.15;75.40;100712.78;4916079;29;20071;-91
2023/03/18 00:25:23;;;;;;;15.95;8.50;;;;;;;12.14;75.93;100716.28;4933802;29;20062;-91
2023/03/18 00:27:48;;;;;;;12.95;8.25;;;;;;;12.13;75.80;100717.13;4910704;29;20366;-91
2023/03/18 00:30:19;;;;;;;12.52;8.65;;;;;;;12.09;75.90;100718.78;4933449;29;20062;-91
2023/03/18 00:32:46;;;;;;;16.88;9.05;;;;;;;12.05;76.22;100717.00;4917776;29;20026;-91
2023/03/18 00:35:15;;;;;;;12.75;8.82;;;;;;;11.99;76.40;100722.13;4912986;29;20051;-91
2023/03/18 00:37:41;;;;;;;16.38;9.15;;;;;;;11.95;76.82;100729.03;4933510;29;20495;-90
2023/03/18 00:40:16;;;;;;;14.45;9.20;;;;;;;11.89;77.23;100731.53;4915861;29;20032;-91
2023/03/18 00:42:50;;;;;;;14.73;8.77;;;;;;;11.86;77.39;100727.97;4917054;29;20038;-91
2023/03/18 00:45:16;;;;;;;17.10;9.05;;;;;;;11.84;77.41;100725.34;4916607;29;20038;-91
2023/03/18 00:47:49;;;;;;;14.93;8.85;;;;;;;11.84;77.53;100728.81;4916160;29;20020;-91
2023/03/18 00:50:16;;;;;;;13.95;8.10;;;;;;;11.86;77.81;100731.47;4915811;29;20035;-91
2023/03/18 00:52:46;;;;;;;12.40;8.15;;;;;;;11.86;77.78;100730.59;4917432;29;20028;-91
2023/03/18 00:55:12;;;;;;;14.90;8.55;;;;;;;11.84;77.84;100739.25;4934499;29;20194;-92
2023/03/18 00:57:38;;;;;;;12.02;8.13;;;;;;;11.77;78.62;100747.84;4916287;29;20035;-91
2023/03/18 01:00:06;;;;;;;12.57;8.10;;;;;;;11.66;79.53;100750.28;4917132;29;20023;-91
2023/03/18 01:02:31;;;;;;;12.50;8.13;;;;;;;11.59;79.69;100745.81;4932952;29;20059;-90
2023/03/18 01:04:57;;;;;;;13.43;7.55;;;;;;;11.56;79.93;100737.91;4916555;29;20250;-92
2023/03/18 01:07:25;;;;;;;12.85;7.90;;;;;;;11.55;80.25;100746.59;4916530;29;20048;-91
2023/03/18 01:09:53;;;;;;;12.80;7.57;;;;;;;11.55;80.45;100745.72;4932622;29;20035;-92
2023/03/18 01:12:22;;;;;;;14.38;8.15;;;;;;;11.55;80.66;100740.50;4928288;29;20111;-91
2023/03/18 01:14:48;;;;;;;13.68;8.30;;;;;;;11.59;80.92;100739.72;4929832;29;20031;-90
2023/03/18 01:17:16;;;;;;;15.13;8.35;;;;;;;11.60;81.11;100736.22;4931023;29;20032;-91
2023/03/18 01:19:42;;;;;;;14.10;8.10;;;;;;;11.61;81.10;100736.25;4930524;29;20498;-91
2023/03/18 01:22:07;;;;;;;16.77;8.60;;;;;;;11.63;81.65;100733.69;4914066;29;20039;-91
2023/03/18 01:24:35;;;;;;;13.05;8.23;;;;;;;11.65;82.17;100737.19;4913111;29;20028;-90
2023/03/18 01:27:03;;;;;;;14.70;8.55;;;;;;;11.62;82.59;100735.41;4913724;29;20032;-91
2023/03/18 01:29:29;;;;;;;14.65;8.98;;;;;;;11.63;83.01;100733.69;4930338;29;20031;-91
2023/03/18 01:31:57;;;;;;;14.60;8.90;;;;;;;11.61;83.77;100730.16;4912985;29;20130;-90
2023/03/18 01:34:22;;;;;;;16.00;9.70;;;;;;;11.56;85.02;100731.84;4930490;29;20395;-91
2023/03/18 01:36:48;;;;;;;14.35;9.20;;;;;;;11.51;85.83;100736.06;4913562;29;20044;-91
2023/03/18 01:39:14;;;;;;;16.60;9.00;;;;;;;11.46;86.81;100742.09;4928243;29;20481;-92
2023/03/18 01:41:52;;;;;;;14.88;9.75;;;;;;;11.40;87.96;100738.50;4913341;29;20119;-91
2023/03/18 01:44:21;;;;;;;16.67;10.25;;;;;;;11.35;89.22;100738.41;4930160;29;20052;-91
2023/03/18 01:46:51;;;;;;;17.23;10.00;;;;;;;11.28;90.44;100737.44;4911018;29;20067;-91
2023/03/18 01:49:34;;;;;;;16.15;10.20;;;;;;;11.22;91.41;100742.50;4911101;29;20023;-90
2023/03/18 01:52:06;;;;;;;17.58;10.65;;;;;;;11.15;92.29;100740.63;4911453;29;20039;-90
2023/03/18 01:54:45;;;;;;;18.70;10.63;;;;;;;11.10;93.15;100735.31;4927331;29;20020;-91
2023/03/18 01:57:11;;;;;;;16.25;10.60;;;;;;;11.08;93.64;100737.03;4929913;29;20031;-90
2023/03/18 01:59:41;;;;;;;19.30;11.27;;;;;;;11.04;94.99;100731.72;4911852;29;20482;-90
2023/03/18 02:02:10;;;;;;;18.63;11.15;;;;;;;11.02;95.32;100738.63;4928539;29;20056;-91
2023/03/18 02:04:47;;;;;;;16.40;11.15;;;;;;;11.01;95.71;100747.28;4912833;29;20031;-90
2023/03/18 02:07:16;;;;;;;19.60;11.07;;;;;;;10.95;96.15;100738.50;4926992;29;20504;-91
2023/03/18 02:09:50;;;;;;;20.83;11.82;;;;;;;10.93;96.30;100734.09;4913103;29;20031;-91
2023/03/18 02:12:23;;;;;;;21.08;11.82;;;;;;;10.91;96.88;100736.69;4913027;29;20045;-91
2023/03/18 02:14:50;;;;;;;17.73;11.18;;;;;;;10.89;97.19;100730.56;4910282;29;20106;-90
2023/03/18 02:17:29;;;;;;;18.38;11.52;;;;;;;10.89;97.81;100740.09;4928699;29;20039;-90
2023/03/18 02:20:00;;;;;;;19.10;11.68;;;;;;;10.88;97.86;100738.38;4913074;29;20031;-90
2023/03/18 02:22:33;;;;;;;18.58;12.45;;;;;;;10.85;98.06;100739.19;4907839;29;20042;-91
2023/03/18 02:25:09;;;;;;;19.70;12.02;;;;;;;10.85;98.77;100741.78;4928322;29;20031;-91
2023/03/18 02:27:38;;;;;;;19.95;12.23;;;;;;;10.88;98.75;100746.19;4928986;29;20031;-90
2023/03/18 02:30:14;;;;;;;18.55;11.70;;;;;;;10.87;99.04;100745.28;4911640;29;20062;-91
2023/03/18 02:32:45;;;;;;;24.50;13.00;;;;;;;10.87;98.88;100745.28;4912921;29;20087;-90
2023/03/18 02:35:13;;;;;;;21.35;12.57;;;;;;;10.87;98.92;100747.91;4928869;29;20149;-91
2023/03/18 02:37:39;;;;;;;21.42;13.38;;;;;;;10.86;99.66;100759.19;4911764;29;20023;-91
2023/03/18 02:40:27;;;;;;;20.70;12.32;;;;;;;10.86;100.00;100767.00;4911654;29;20035;-90
2023/03/18 02:42:53;;;;;;;20.58;12.48;;;;;;;10.89;99.53;100767.06;4929285;29;20106;-91
2023/03/18 02:45:31;;;;;;;23.05;13.18;;;;;;;10.87;100.00;100771.34;4911314;29;20051;-91
2023/03/18 02:47:59;;;;;;;22.25;12.60;;;;;;;10.84;100.00;100763.47;4928353;29;20698;-90
2023/03/18 02:50:24;;;;;;;21.67;13.27;;;;;;;10.84;100.00;100760.88;4912225;29;20412;-91
2023/03/18 02:52:50;;;;;;;20.33;13.23;;;;;;;10.84;100.00;100763.47;4928507;29;20106;-90
2023/03/18 02:55:15;;;;;;;20.85;12.68;;;;;;;10.82;100.00;100762.56;4928673;29;20111;-91
2023/03/18 02:57:41;;;;;;;23.23;13.18;;;;;;;10.78;100.00;100774.66;4912237;29;20051;-90
2023/03/18 03:00:07;;;;;;;23.00;13.35;;;;;;;10.75;100.00;100773.72;4910817;29;20024;-91
2023/03/18 03:02:32;;;;;;;23.30;13.85;;;;;;;10.73;100.00;100773.69;4910955;29;20039;-91
2023/03/18 03:05:00;;;;;;;21.38;13.18;;;;;;;10.73;100.00;100778.00;4911870;29;20028;-91
2023/03/18 03:07:27;;;;;;;24.08;13.77;;;;;;;10.73;100.00;100773.69;4927518;29;20478;-91
2023/03/18 03:09:53;;;;;;;21.83;12.95;;;;;;;10.73;100.00;100786.72;4927945;29;20096;-91
2023/03/18 03:12:18;;;;;;;20.25;13.82;;;;;;;10.73;100.00;100793.63;4929417;29;20115;-91
2023/03/18 03:14:44;;;;;;;21.88;13.88;;;;;;;10.73;100.00;100791.94;4928218;29;20110;-91
2023/03/18 03:17:09;;;;;;;23.60;13.60;;;;;;;10.75;100.00;100798.03;4929071;29;20039;-91
2023/03/18 03:19:35;;;;;;;22.65;14.10;;;;;;;10.76;100.00;100797.19;4911850;29;20115;-91
2023/03/18 03:22:00;;;;;;;25.70;14.60;;;;;;;10.77;100.00;100793.72;4927833;29;20031;-91
2023/03/18 03:24:26;;;;;;;23.67;13.98;;;;;;;10.78;100.00;100797.22;4911624;29;20648;-91
2023/03/18 03:26:51;;;;;;;26.23;14.57;;;;;;;10.78;100.00;100794.63;4911061;29;20046;-91
2023/03/18 03:29:16;;;;;;;24.08;14.40;;;;;;;10.78;100.00;100790.28;4909605;29;20031;-91
2023/03/18 03:31:42;;;;;;;23.23;14.55;;;;;;;10.79;100.00;100799.88;4910678;29;20042;-90
2023/03/18 03:34:08;;;;;;;24.88;15.27;;;;;;;10.78;100.00;100795.50;4928273;29;20043;-91
2023/03/18 03:36:33;;;;;;;23.70;14.85;;;;;;;10.81;100.00;100796.44;4928534;29;20055;-91
2023/03/18 03:38:59;;;;;;;23.27;14.45;;;;;;;10.82;100.00;100801.66;4928179;29;20042;-91
2023/03/18 03:41:24;;;;;;;23.60;14.63;;;;;;;10.84;100.00;100791.28;4911803;29;20034;-90
2023/03/18 03:43:53;;;;;;;23.42;14.63;;;;;;;10.84;100.00;100801.69;4910914;29;20235;-91
2023/03/18 03:46:21;;;;;;;24.02;14.80;;;;;;;10.84;100.00;100797.34;4910376;29;20054;-90
2023/03/18 03:48:47;;;;;;;25.58;15.20;;;;;;;10.86;100.00;100800.00;4910455;29;20031;-91
2023/03/18 03:51:13;;;;;;;27.50;16.08;;;;;;;10.84;100.00;100802.56;4909677;29;20031;-90
2023/03/18 03:53:39;;;;;;;27.63;15.93;;;;;;;10.78;100.00;100802.44;4927748;29;20031;-91
2023/03/18 03:56:10;;;;;;;25.45;15.35;;;;;;;10.78;100.00;100810.25;4910757;29;20032;-91
2023/03/18 03:58:35;;;;;;;26.40;15.75;;;;;;;10.79;100.00;100809.44;4911630;29;20040;-90
2023/03/18 04:01:01;;;;;;;26.83;16.90;;;;;;;10.78;100.00;100808.53;4928182;29;20137;-91
2023/03/18 04:03:29;;;;;;;32.10;17.15;;;;;;;10.76;100.00;100809.34;4926757;29;20051;-90
2023/03/18 04:05:55;;;;;;;28.48;16.40;;;;;;;10.72;100.00;100808.41;4909180;29;20028;-90
2023/03/18 04:08:23;;;;;;;29.23;16.77;;;;;;;10.68;100.00;100809.16;4928204;29;20032;-91
2023/03/18 04:10:48;;;;;;;31.33;16.95;;;;;;;10.71;100.00;100813.59;4928192;29;20394;-91
2023/03/18 04:13:14;;;;;;;30.88;16.98;;;;;;;10.69;100.00;100812.66;4911082;29;20087;-90
2023/03/18 04:15:39;;;;;;;28.13;17.20;;;;;;;10.67;100.00;100811.75;4926418;29;20059;-90
2023/03/18 04:18:05;;;;;;;30.80;17.83;;;;;;;10.65;100.00;100813.44;4909489;29;20031;-90
2023/03/18 04:20:38;;;;;;;28.35;17.15;;;;;;;10.61;100.00;100813.34;4928111;29;20031;-91
2023/03/18 04:23:06;;;;;;;28.67;17.92;;;;;;;10.59;100.00;100824.59;4910679;29;20545;-91
2023/03/18 04:25:32;;;;;;;31.33;17.60;;;;;;;10.55;100.00;100813.22;4910688;29;20074;-91
2023/03/18 04:27:57;;;;;;;34.60;17.50;;;;;;;10.53;100.00;100812.31;4909886;29;20032;-91
2023/03/18 04:30:24;;;;;;;32.47;17.42;;;;;;;10.52;100.00;100815.75;4911556;29;20030;-90
2023/03/18 04:32:51;;;;;;;35.80;18.38;;;;;;;10.52;100.00;100818.38;4910452;29;20032;-91
2023/03/18 04:35:17;;;;;;;34.92;18.25;;;;;;;10.51;100.00;100808.78;4910378;29;20040;-91
2023/03/18 04:37:43;;;;;;;33.45;18.95;;;;;;;10.51;100.00;100814.00;4910793;29;20083;-90
2023/03/18 04:40:10;;;;;;;35.50;18.52;;;;;;;10.50;100.00;100822.66;4907071;29;20046;-91
2023/03/18 04:42:36;;;;;;;34.38;18.63;;;;;;;10.49;100.00;100813.09;4926408;29;20111;-90
2023/03/18 04:45:04;;;;;;;36.90;18.55;;;;;;;10.49;100.00;100826.09;4910290;29;20511;-90
2023/03/18 04:47:31;;;;;;;32.05;18.20;;;;;;;10.49;100.00;100827.84;4907529;29;20063;-91
2023/03/18 04:49:56;;;;;;;36.30;20.45;;;;;;;10.48;100.00;100824.34;4913504;29;20035;-90
2023/03/18 04:52:22;;;;;;;32.25;18.60;;;;;;;10.48;100.00;100833.88;4914134;29;20035;-91
2023/03/18 04:54:47;;;;;;;36.90;19.67;;;;;;;10.48;100.00;100839.09;4930402;29;20028;-89
2023/03/18 04:57:12;;;;;;;34.63;19.50;;;;;;;10.48;100.00;100829.56;4912679;29;20034;-90
2023/03/18 04:59:38;;;;;;;36.10;19.73;;;;;;;10.48;100.00;100829.56;4914824;29;20032;-91
2023/03/18 05:02:03;;;;;;;34.22;18.50;;;;;;;10.49;100.00;100840.88;4914768;29;20035;-90
2023/03/18 05:04:32;;;;;;;34.05;19.05;;;;;;;10.52;100.00;100844.41;4930302;29;20640;-90
2023/03/18 05:06:57;;;;;;;36.67;19.98;;;;;;;10.52;100.00;100847.03;4913478;29;20047;-90
2023/03/18 05:09:26;;;;;;;35.55;19.05;;;;;;;10.52;100.00;100849.63;4913508;29;20032;-89
2023/03/18 05:11:51;;;;;;;34.63;19.77;;;;;;;10.51;100.00;100847.84;4912258;29;20401;-90
2023/03/18 05:14:17;;;;;;;35.45;19.65;;;;;;;10.50;100.00;100848.72;4913372;29;20031;-90
2023/03/18 05:16:45;;;;;;;32.00;18.83;;;;;;;10.50;100.00;100853.94;4913594;29;20059;-91
2023/03/18 05:19:10;;;;;;;37.15;19.23;;;;;;;10.49;100.00;100852.16;4930209;29;20028;-91
2023/03/18 05:21:38;;;;;;;33.75;18.40;;;;;;;10.49;100.00;100844.34;4913890;29;20065;-90
2023/03/18 05:24:04;;;;;;;33.85;18.75;;;;;;;10.48;100.00;100839.09;4912396;29;20063;-90
2023/03/18 05:26:29;;;;;;;36.78;18.27;;;;;;;10.47;100.00;100847.75;4929654;29;20110;-90
2023/03/18 05:28:55;;;;;;;34.58;18.63;;;;;;;10.47;100.00;100834.72;4930954;29;20035;-90
2023/03/18 05:31:20;;;;;;;31.42;17.30;;;;;;;10.47;100.00;100833.03;4913276;29;20034;-91
2023/03/18 05:33:46;;;;;;;33.00;17.85;;;;;;;10.46;100.00;100835.56;4924571;29;20039;-90
2023/03/18 05:36:15;;;;;;;33.25;18.08;;;;;;;10.44;100.00;100844.25;4912203;29;20094;-91
2023/03/18 05:38:41;;;;;;;32.00;16.42;;;;;;;10.45;100.00;100837.28;4929306;29;20039;-90
2023/03/18 05:41:09;;;;;;;31.63;17.48;;;;;;;10.44;100.00;100832.91;4911388;29;20029;-91
2023/03/18 05:43:34;;;;;;;29.83;17.52;;;;;;;10.40;100.00;100821.56;4912552;29;20024;-90
2023/03/18 05:46:00;;;;;;;29.23;16.60;;;;;;;10.39;100.00;100837.16;4930409;29;20095;-90
2023/03/18 05:48:25;;;;;;;29.73;16.85;;;;;;;10.38;100.00;100845.81;4930426;29;20026;-90
2023/03/18 05:50:51;;;;;;;31.75;17.83;;;;;;;10.37;100.00;100852.75;4930399;29;20027;-91
2023/03/18 05:53:16;;;;;;;27.13;16.27;;;;;;;10.35;100.00;100859.63;4928459;29;20112;-91
2023/03/18 05:55:42;;;;;;;28.58;16.77;;;;;;;10.36;100.00;100871.81;4912119;29;20078;-90
2023/03/18 05:58:08;;;;;;;28.73;16.70;;;;;;;10.36;100.00;100869.22;4911570;29;20042;-91
2023/03/18 06:00:37;;;;;;;27.50;16.38;;;;;;;10.35;100.00;100874.38;4912287;29;20098;-90
2023/03/18 06:03:02;;;;;;;31.30;16.90;;;;;;;10.36;100.00;100881.38;4931736;29;20063;-90
2023/03/18 06:05:28;;;;;;;28.73;15.93;;;;;;;10.34;100.00;100888.25;4930195;29;20083;-91
2023/03/18 06:07:54;;;;;;;25.27;15.13;;;;;;;10.34;100.00;100888.25;4910587;29;20110;-91
2023/03/18 06:10:21;;;;;;;27.63;15.63;;;;;;;10.33;100.00;100887.34;4929119;29;20047;-90
2023/03/18 06:12:48;;;;;;;25.30;14.90;;;;;;;10.34;100.00;100883.03;4913282;29;20028;-91
2023/03/18 06:15:14;;;;;;;25.60;15.10;;;;;;;10.32;100.00;100882.09;4928881;29;21437;-90
2023/03/18 06:17:41;;;;;;;22.70;14.52;;;;;;;10.31;100.00;100877.72;4913167;29;20617;-91
2023/03/18 06:20:09;;;;;;;27.55;14.73;;;;;;;10.25;100.00;100874.13;4929704;29;20023;-91
2023/03/18 06:22:35;;;;;;;22.98;14.13;;;;;;;10.22;100.00;100883.56;4913877;29;20084;-92
2023/03/18 06:25:02;;;;;;;23.98;14.93;;;;;;;10.20;100.00;100885.28;4930273;29;20036;-91
2023/03/18 06:27:30;;;;;;;25.00;14.95;;;;;;;10.17;100.00;100880.00;4929754;29;20039;-93
2023/03/18 06:29:56;;;;;;;23.30;13.90;;;;;;;10.15;100.00;100877.31;4931733;29;20032;-93
2023/03/18 06:32:21;;;;;;;24.27;14.05;;;;;;;10.15;100.00;100887.72;4914184;29;20027;-92
2023/03/18 06:34:49;;;;;;;24.40;13.95;;;;;;;10.14;100.00;100880.78;4912622;29;20051;-93
2023/03/18 06:37:15;;;;;;;23.67;14.10;;;;;;;10.13;100.00;100886.81;4930543;29;20043;-92
2023/03/18 06:39:40;;;;;;;24.70;14.25;;;;;;;10.12;100.00;100885.06;4914266;29;20489;-92
2023/03/18 06:42:06;;;;;;;24.88;14.10;;;;;;;10.13;100.00;100892.03;4928998;29;20038;-92
2023/03/18 06:44:34;;;;;;;22.98;13.32;;;;;;;10.14;100.00;100901.63;4930494;29;20060;-92
2023/03/18 06:47:00;;;;;;;20.73;13.38;;;;;;;10.14;100.00;100903.31;4913365;29;20047;-92
2023/03/18 06:49:25;;;;;;;22.52;13.90;;;;;;;10.13;100.00;100902.44;4908310;29;20020;-92
2023/03/18 06:51:53;;;;;;;22.50;13.73;;;;;;;10.12;100.00;100892.84;4911779;29;20050;-92
2023/03/18 06:54:21;;;;;;;22.48;13.75;;;;;;;10.13;100.00;100898.97;4929254;29;20035;-93
2023/03/18 06:56:47;;;;;;;25.05;14.30;;;;;;;10.14;100.00;100906.81;4909405;29;20024;-91
2023/03/18 06:59:12;;;;;;;23.52;14.18;;;;;;;10.16;100.00;100907.72;4915004;29;20685;-93
2023/03/18 07:01:40;;;;;;;21.52;13.70;;;;;;;10.16;100.00;100902.53;4910407;29;20397;-92
2023/03/18 07:04:05;;;;;;;25.20;14.45;;;;;;;10.18;100.00;100911.28;4925338;29;20039;-92
2023/03/18 07:06:31;;;;;;;23.30;14.13;;;;;;;10.21;100.00;100919.16;4912755;29;20098;-93
2023/03/18 07:08:57;;;;;;;25.13;15.13;;;;;;;10.21;100.00;100924.38;4912380;29;20023;-92
2023/03/18 07:11:29;;;;;;;24.05;14.43;;;;;;;10.23;100.00;100922.66;4912908;29;20036;-93
2023/03/18 07:13:57;;;;;;;24.70;15.32;;;;;;;10.26;100.00;100920.13;4912298;29;20039;-94
2023/03/18 07:16:25;;;;;;;25.63;14.57;;;;;;;10.30;100.00;100925.44;4912928;29;20035;-94
2023/03/18 07:18:50;;;;;;;25.95;15.05;;;;;;;10.30;100.00;100923.72;4912051;29;20024;-94
2023/03/18 07:21:16;;;;;;;25.42;15.75;;;;;;;10.33;100.00;100930.75;4912864;29;20433;-94
2023/03/18 07:23:42;;;;;;;23.38;14.80;;;;;;;10.35;100.00;100936.91;4908842;29;20115;-91
2023/03/18 07:26:08;;;;;;;25.23;15.18;;;;;;;10.37;100.00;100938.69;4912397;29;20115;-93
2023/03/18 07:28:33;;;;;;;24.50;14.60;;;;;;;10.40;100.00;100937.91;4911487;29;20020;-91
2023/03/18 07:30:59;;;;;;;22.52;15.10;;;;;;;10.42;100.00;100938.81;4913260;29;20034;-93
2023/03/18 07:33:28;;;;;;;25.40;15.45;;;;;;;10.46;100.00;100935.44;4912095;29;20039;-93
2023/03/18 07:35:56;;;;;;;23.52;14.95;;;;;;;10.50;100.00;100932.09;4913683;29;20043;-94
2023/03/18 07:38:22;;;;;;;24.60;15.27;;;;;;;10.55;100.00;100938.28;4912635;29;20122;-93
2023/03/18 07:40:52;;;;;;;23.73;15.20;;;;;;;10.61;100.00;100946.25;4911892;29;20028;-93
2023/03/18 07:43:20;;;;;;;23.63;14.52;;;;;;;10.66;100.00;100950.69;4912573;29;20106;-91
2023/03/18 07:45:46;;;;;;;22.23;14.77;;;;;;;10.73;100.00;100950.91;4910281;29;20067;-91
2023/03/18 07:48:11;;;;;;;24.17;14.88;;;;;;;10.81;100.00;100951.06;4929342;29;20174;-94
2023/03/18 07:50:36;;;;;;;23.15;14.70;;;;;;;10.84;100.00;100950.28;4928735;29;20103;-92
2023/03/18 07:53:03;;;;;;;24.63;14.55;;;;;;;10.88;100.00;100960.81;4928962;29;20031;-92
2023/03/18 07:55:28;;;;;;;23.77;14.60;;;;;;;10.94;100.00;100970.50;4921800;29;20059;-92
2023/03/18 07:57:54;;;;;;;22.02;13.88;;;;;;;10.98;100.00;100966.22;4912266;29;20122;-91
2023/03/18 08:00:20;;;;;;;21.08;13.48;;;;;;;11.03;100.00;100968.09;4929096;29;20031;-91
2023/03/18 08:02:45;;;;;;;25.90;15.65;;;;;;;11.09;100.00;100967.38;4911831;29;20030;-91
2023/03/18 08:05:12;;;;;;;22.88;14.30;;;;;;;11.14;100.00;100964.03;4928701;29;20555;-91
2023/03/18 08:07:41;;;;;;;22.83;13.23;;;;;;;11.22;99.51;100955.50;4910476;29;20490;-90
2023/03/18 08:10:13;;;;;;;21.70;12.95;;;;;;;11.33;99.56;100955.75;4905808;29;20032;-90
2023/03/18 08:12:41;;;;;;;21.45;12.98;;;;;;;11.47;99.38;100952.59;4920724;29;20122;-90
2023/03/18 08:15:08;;;;;;;21.63;13.03;;;;;;;11.59;97.79;100949.34;4928725;29;20032;-91
2023/03/18 08:17:36;;;;;;;19.98;12.43;;;;;;;11.72;97.54;100949.63;4907426;29;20697;-91
2023/03/18 08:20:01;;;;;;;19.55;11.60;;;;;;;11.81;97.04;100941.97;4910902;29;20111;-91
2023/03/18 08:22:27;;;;;;;19.77;11.68;;;;;;;11.94;95.89;100938.78;4930473;29;20028;-90
2023/03/18 08:24:52;;;;;;;19.98;11.77;;;;;;;12.06;94.35;100947.72;4931060;29;20042;-90
2023/03/18 08:27:18;;;;;;;18.80;12.05;;;;;;;12.23;95.57;100948.91;4930973;29;20114;-91
2023/03/18 08:29:44;;;;;;;19.48;11.15;;;;;;;12.34;92.97;100946.50;4931516;29;20032;-91
2023/03/18 08:32:09;;;;;;;17.27;11.23;;;;;;;12.41;92.96;100945.75;4928917;29;20055;-91
2023/03/18 08:34:37;;;;;;;17.42;10.55;;;;;;;12.45;91.83;100951.91;4915463;29;20115;-91
2023/03/18 08:37:03;;;;;;;20.60;11.13;;;;;;;12.50;91.05;100953.75;4930079;29;20541;-91
2023/03/18 08:39:29;;;;;;;18.70;10.98;;;;;;;12.56;91.19;100955.59;4915381;29;20126;-92
2023/03/18 08:41:55;;;;;;;18.85;10.52;;;;;;;12.62;91.11;100958.31;4932648;29;20035;-91
2023/03/18 08:44:30;;;;;;;17.35;10.90;;;;;;;12.77;92.76;100968.13;4915672;29;20131;-92
2023/03/18 08:46:59;;;;;;;17.83;10.65;;;;;;;12.87;90.10;100956.09;4932440;29;20020;-91
2023/03/18 08:49:24;;;;;;;17.75;10.68;;;;;;;12.99;89.84;100965.84;4914906;29;20039;-92
2023/03/18 08:51:50;;;;;;;17.55;10.10;;;;;;;13.13;90.40;100968.69;4930010;29;20082;-92
2023/03/18 08:54:16;;;;;;;16.45;10.23;;;;;;;13.29;88.94;100969.81;4914380;29;20034;-92
2023/03/18 08:56:41;;;;;;;16.45;10.25;;;;;;;13.36;87.44;100967.31;4932580;29;20036;-92
2023/03/18 08:59:07;;;;;;;19.30;11.07;;;;;;;13.42;87.81;100961.28;4915224;29;20961;-91
2023/03/18 09:01:33;;;;;;;18.98;10.60;;;;;;;13.49;87.05;100964.88;4913180;29;20028;-92
2023/03/18 09:03:58;;;;;;;17.67;11.02;;;;;;;13.50;86.39;100967.53;4914390;29;20031;-92
2023/03/18 09:06:24;;;;;;;19.70;10.55;;;;;;;13.54;86.61;100965.81;4929241;29;20114;-91
2023/03/18 09:08:49;;;;;;;17.08;11.80;;;;;;;13.62;86.74;100971.16;4929636;29;20404;-91
2023/03/18 09:11:17;;;;;;;17.48;10.50;;;;;;;13.73;86.79;100966.94;4928934;29;20028;-91
2023/03/18 09:13:49;;;;;;;17.13;10.18;;;;;;;13.91;86.44;100975.00;4923569;29;20023;-91
2023/03/18 09:16:14;;;;;;;16.23;10.35;;;;;;;14.05;85.46;100974.31;4913881;29;20035;-91
2023/03/18 09:18:40;;;;;;;16.02;9.48;;;;;;;14.21;85.16;100984.09;4931025;29;20027;-91
2023/03/18 09:21:08;;;;;;;18.15;10.45;;;;;;;14.30;83.33;100980.69;4913132;29;20461;-91
2023/03/18 09:23:33;;;;;;;16.83;10.43;;;;;;;14.26;83.08;100973.66;4911836;29;20090;-91
2023/03/18 09:26:02;;;;;;;16.88;10.07;;;;;;;14.24;83.04;100972.78;4929551;29;20035;-91
2023/03/18 09:28:27;;;;;;;15.38;9.80;;;;;;;14.17;81.77;100974.44;4914098;29;20117;-93
2023/03/18 09:30:59;;;;;;;15.65;9.10;;;;;;;14.15;82.53;100977.91;4930774;29;20061;-92
2023/03/18 09:33:27;;;;;;;18.20;9.38;;;;;;;14.16;81.37;100977.03;4912877;29;20070;-91
2023/03/18 09:35:55;;;;;;;13.18;9.00;;;;;;;14.22;82.56;100978.00;4912744;29;20521;-92
2023/03/18 09:38:32;;;;;;;14.65;8.73;;;;;;;14.29;81.76;100981.53;4912317;29;20040;-92
2023/03/18 09:41:18;;;;;;;17.17;9.30;;;;;;;14.34;81.39;100977.25;4930674;29;20016;-90
2023/03/18 09:43:49;;;;;;;13.43;7.88;;;;;;;14.45;81.22;100985.19;4914348;29;20106;-92
2023/03/18 09:46:40;;;;;;;13.75;8.57;;;;;;;14.52;81.51;100973.03;4930086;29;20059;-91
2023/03/18 09:49:50;;;;;;;13.07;8.35;;;;;;;14.68;82.34;100974.97;4928836;29;20039;-92
2023/03/18 09:52:53;;;;;;;12.57;7.13;;;;;;;14.93;81.38;100973.44;4911945;29;20102;-92
2023/03/18 09:55:42;;;;;;;12.98;7.45;;;;;;;15.12;78.54;100982.31;4912682;29;20036;-92
2023/03/18 09:58:35;;;;;;;13.32;7.47;;;;;;;15.25;79.74;100978.03;4929383;29;20497;-91
2023/03/18 10:01:15;;;;;;;14.32;7.70;;;;;;;15.33;77.24;100969.31;4928419;29;20130;-92
2023/03/18 10:03:50;;;;;;;14.95;7.47;;;;;;;15.39;76.89;100967.59;4912829;29;20051;-92
2023/03/18 10:06:26;;;;;;;11.60;6.63;;;;;;;15.51;76.20;100965.91;4929440;29;20024;-92
2023/03/18 10:09:16;;;;;;;12.05;6.35;;;;;;;15.55;75.67;100971.19;4909690;29;20027;-93
2023/03/18 10:11:51;;;;;;;10.50;6.60;;;;;;;15.45;74.88;100974.63;4913405;29;20036;-95
2023/03/18 10:14:25;;;;;;;11.25;6.35;;;;;;;15.38;73.94;100973.75;4913047;29;20027;-93
2023/03/18 10:17:05;;;;;;;11.48;5.25;;;;;;;15.37;74.33;100968.47;4915286;29;20039;-94
2023/03/18 10:22:45;;;;;;;10.52;4.57;;;;;;;15.62;73.82;100974.72;4932166;29;20048;-93
2023/03/18 10:25:17;;;;;;;10.10;4.70;;;;;;;15.93;73.18;100972.25;4911819;29;20114;-93
2023/03/18 10:28:05;;;;;;;12.57;5.13;;;;;;;16.15;73.90;100976.72;4930541;29;20038;-96
2023/03/18 10:31:13;;;;;;;9.10;5.18;;;;;;;16.20;71.78;100979.34;4911730;29;20023;-93
2023/03/18 10:34:08;;;;;;;13.07;5.23;;;;;;;15.93;71.50;100978.41;4896244;29;20039;-92
2023/03/18 10:36:49;;;;;;;8.30;4.50;;;;;;;15.76;70.94;100985.31;4929679;29;20777;-92
2023/03/18 10:39:22;;;;;;;10.15;4.93;;;;;;;15.75;71.77;100975.66;4912906;29;20097;-94
2023/03/18 10:41:53;;;;;;;11.02;4.90;;;;;;;15.77;70.43;100972.19;4914399;29;20512;-93
2023/03/18 10:44:42;;;;;;;10.90;4.20;;;;;;;15.73;71.50;100972.13;4908598;29;20031;-92
2023/03/18 10:47:22;;;;;;;;;;;;;;;15.76;73.28;100978.28;4911144;29;20509;-93
2023/03/18 10:50:24;;;;;;;11.73;4.75;;;;;;;15.68;72.12;100968.63;4928406;29;19914;-93
2023/03/18 10:53:01;;;;;;;8.73;4.32;;;;;;;15.78;71.50;100966.06;4930582;29;20035;-93
2023/03/18 10:55:39;;;;;;;9.63;4.32;;;;;;;15.85;70.28;100960.84;4929579;29;20028;-91
2023/03/18 10:58:15;;;;;;;9.68;4.07;;;;;;;15.82;70.35;100956.47;4927955;29;20123;-93
2023/03/18 11:00:46;;;;;;;7.72;4.03;;;;;;;15.72;67.95;100955.50;4912501;29;20043;-92
2023/03/18 11:03:26;;;;;;;9.70;3.58;;;;;;;15.61;69.25;100962.44;4912996;29;20470;-91
2023/03/18 11:06:11;;;;;;;11.00;4.57;;;;;;;15.48;70.45;100957.16;4911870;29;20027;-92
2023/03/18 11:08:40;;;;;;;8.30;3.97;;;;;;;15.38;70.19;100954.47;4911862;29;20046;-91
2023/03/18 11:11:16;;;;;;;;;;;;;;;15.41;72.35;100963.25;4926808;29;20118;-91
2023/03/18 11:13:54;;;;;;;6.88;2.80;;;;;;;15.28;69.78;100964.06;4925752;29;19918;-91
2023/03/18 11:16:31;;;;;;;8.15;3.13;;;;;;;15.24;70.17;100962.28;4906261;29;20027;-91
2023/03/18 11:18:57;;;;;;;9.38;3.70;;;;;;;15.22;70.34;100958.75;4910935;29;20039;-91
2023/03/18 11:21:28;;;;;;;7.80;3.70;;;;;;;15.20;70.63;100961.34;4928832;29;20086;-91